Résultats

Trail des Castellas - La Sublime 17 km. Édition 2021.

17 Km
03/07/2021 à 18:00:00 - Belcodene (Bouches-du-Rhône)
85 arrivant(e)s.


 
Les autres classements de cet évènement




Place▲ Temps Dossard Nom Prenom Categ #Categ Sexe #Sexe Club Vit Moy Diplôme Partager
1 01:17:45 161 LIGIER NICOLAS M0M 1 M 1 13.12
2 01:18:45 183 REGNERIE PASCAL M2M 1 M 2 TEAM PROVENCE ENDURANCE 12.95
3 01:25:40 105 FORTINI SERGE M0M 2 M 3 LE LIEVRE ET LA TORTUE 11.91
4 01:28:01 134 N:Anonyme 134 P:Anonyme 134 M1M 1 M 4 LES CENTAURES DE PERTUIS 11.59
5 01:29:04 175 MICHEL ERIC M3M 1 M 5 COURIR A FUVEAU 11.45
6 01:33:24 143 GALLIGANI SEBASTIEN M2M 2 M 6 10.92
7 01:33:37 189 N:Anonyme 189 P:Anonyme 189 M0M 3 M 7 10.90
8 01:35:36 179 OGEA MATHIEU M0M 4 M 8 10.67
9 01:37:04 128 DOUALLE THOMAS SEM 1 M 9 10.51
10 01:37:37 155 HUGON LAURA M0F 1 F 1 EAC 10.45
11 01:39:30 170 MARINI NICOLAS M1M 2 M 10 10.25
12 01:40:07 192 VIGIER LOUIS ESM 1 M 11 10.19
13 01:41:14 154 HOURIEZ RODOLPHE M2M 3 M 12 A S SIX FOURS 10.08
14 01:42:19 112 BOURG GAEL SEM 2 M 13 AIL ROUSSET 9.97
15 01:43:24 178 NINCI PATRICE M2M 4 M 14 9.86
16 01:43:58 127 DUMONT NICOLAS M1M 3 M 15 9.81
17 01:44:33 157 LAMPAZONA PASCAL M3M 2 M 16 LES CENTAURES DE PERTUIS 9.76
18 01:45:58 123 DEHARBE DAVID M3M 3 M 17 AIX ATHLE PROVENCE 9.63
19 01:46:12 136 FERNANDEZ JEAN-FRANCOIS M2M 5 M 18 BELCODENE 9.60
20 01:46:27 171 MARTINEZ FABIEN M0M 5 M 19 9.58
21 01:48:30 117 CERRONE HUGO M0M 6 M 20 RMM 9.40
22 01:48:52 172 MELIS ARNAUD M0M 7 M 21 AUBAGNE TRAIL CLUB 9.37
23 01:48:54 141 GALANAKIS ERIC M4M 1 M 22 CLES GARDANNE 9.37
24 01:49:04 146 GEVIA JEAN-MICHEL M5M 1 M 23 SANS 9.35
25 01:49:59 114 BRUNEL SEBASTIEN M1M 4 M 24 CHRONO LIBRE CHATEAUNEUF LES MARTIGUES 9.27
26 01:50:16 130 DURST DAVID M2M 6 M 25 9.25
27 01:51:25 138 FETTER GABRIEL M5M 2 M 26 US SAINT-LOUIS 9.15
28 01:52:43 149 GRACIA GUILLAUME M0M 8 M 27 9.05
29 01:52:47 113 BRETAGNE SANDRINE M3F 1 F 2 LE LIEVRE ET LA TORTUE 9.04
30 01:52:55 109 BOULINGUEZ JEAN-BERNARD M3M 4 M 28 KANAJOG 9.03
31 01:52:59 184 ROHMANN SYLVAIN M1M 5 M 29 9.03
32 01:53:10 133 ERDINGER FABRICE M2M 7 M 30 LES ALLUMES DE LA SAINTE VICTOIRE 9.01
33 01:55:00 125 DE-LA-VARA ROBERTO M5M 3 M 31 8.87
34 01:55:00 107 AUVRE DELPHINE M2F 1 F 3 SC CHATEAURENARD 8.87
35 01:55:37 150 GUMB CEDRIC M2M 8 M 32 LFA TRETS 8.82
36 01:59:14 188 TEILLET OLIVIER M3M 5 M 33 8.55
37 02:00:11 119 COMITI PHILIPPE M2M 9 M 34 8.49
38 02:00:33 162 LIGNY CLAIRE SEF 1 F 4 8.46
39 02:01:11 102 ALLEGRE CLAUDE M4M 2 M 35 8.42
40 02:01:53 103 ARAGON MICHEL M3M 6 M 36 ROUSSET TRIATHLON 8.37
41 02:01:57 106 AUFRERE ISABELLE M5F 1 F 5 AIX ATHLE PROVENCE 8.36
42 02:03:30 126 DICANDIA JULIEN SEM 3 M 37 8.26
43 02:03:35 131 EL-QACEMI VIRGINIE M1F 1 F 6 8.25
44 02:03:58 177 MOULY NICOLAS M4M 3 M 38 CSP13 8.23
45 02:05:18 158 LAURENT BENOIT M3M 7 M 39 COURIR LE MONDE 8.14
46 02:05:18 132 ENFRAZE SEBASTIEN M1M 6 M 40 8.14
47 02:05:35 163 LILLO ERIC M5M 4 M 41 ACP MARSEILLE 8.12
48 02:05:39 108 BERTHET-PILON DIDIER M5M 5 M 42 LA FOULEE DE GREASQUE 8.12
49 02:06:04 116 CARVALHO HILARIO M3M 8 M 43 CHRONO LIBRE 8.09
50 02:06:25 104 ARNOLDI LUC M5M 6 M 44 8.07
51 02:06:29 124 DEHARBE PATRICIA SEF 2 F 7 AIX ATHLE PROVENCE 8.06
52 02:06:37 145 GAY SANDRINE M1F 2 F 8 8.06
53 02:07:07 153 HOPP CEDRIC M3M 9 M 45 NAOS 8.02
54 02:07:17 168 MANGIN LAURENCE M3F 2 F 9 LES FOULEES DU LORIOT 8.01
55 02:11:05 191 TREBAOL ALEXIS M0M 9 M 46 AIL ROUSSET 7.78
56 02:11:12 101 AHMIM ALI M1M 7 M 47 COURIR A FUVEAU 7.77
57 02:13:10 152 HAUQUIER SYLVAIN M0M 10 M 48 7.66
58 02:14:05 193 WINTREBERT FLORIAN M2M 10 M 49 7.61
59 02:14:06 176 MOHAMMEDI OLFA M1F 3 F 10 CLES GARDANNE 7.61
60 02:16:02 181 PARISI TONY M4M 4 M 50 TEAM TRAIL VENELLES 7.50
61 02:16:03 167 MACCARIO ELSA SEF 3 F 11 7.50
62 02:16:50 135 FAMER LUCY M2F 2 F 12 7.45
63 02:17:02 139 FOREST ANNE-CELINE M3F 3 F 13 7.44
64 02:19:13 147 GONCALVES RITA M3F 4 F 14 LES ALLUMES DE LA STE VICTOIRE 7.33
65 02:19:46 159 LE-GODEC ERIC M4M 5 M 51 AUBAGNE TRAIL CLUB 7.30
66 02:20:03 173 MESSIREJEAN CELINE M1F 4 F 15 LA FOULEE DE GREASQUE 7.28
67 02:21:28 174 MEUNIER FABRICE M4M 6 M 52 AIL ROUSSET 7.21
68 02:21:49 120 DANDOIS DELPHINE SEF 4 F 16 LA FOULEE DE GREASQUE 7.19
69 02:22:51 182 PERES MARC M6M 1 M 53 AIL ROUSSET 7.14
70 02:23:12 180 OUDOT GREGORY M0M 11 M 54 7.12
71 02:24:44 165 LOUPIAC BERNARD M5M 7 M 55 LA FOULEE DE GREASQUE 7.05
72 02:29:05 144 GARRIGUES REMI SEM 4 M 56 6.84
73 02:29:41 164 LORANG MARC-JEAN-LUC M6M 2 M 57 AIL ROUSSET 6.81
74 02:31:20 151 GUMB ISALINA M1F 5 F 17 LFA TRETS 6.74
75 02:33:40 186 ROYERE ANDRE M5M 8 M 58 LA FOULEE DE GREASQUE 6.64
76 02:36:15 160 LEPRESLE SANDRINE M3F 5 F 18 GUERIDUNCANCER/LA FOULEE DE GREASQUE 6.53
77 02:36:21 111 BOUNOUS YAN ESM 2 M 59 6.52
78 02:36:39 185 ROUX SYLVIE M1F 6 F 19 6.51
79 02:38:05 166 LUTHRINGSHAUSER MICHEL M2M 11 M 60 6.45
80 02:39:41 156 KHADIR TAIEB M2M 12 M 61 FC LOUSTICS 6.39
81 02:46:23 140 GADARINIAN GABRIEL M6M 3 M 62 6.13
82 02:53:10 137 FERRER SABINE M3F 6 F 20 5.89
83 02:59:52 121 DASVIT VERONIQUE M4F 1 F 21 5.67
84 03:06:12 142 GALANTI BERNARD M3M 10 M 63 CLES GARDANNE 5.48
85 03:10:35 169 MANGION SANDRINE M3F 7 F 22 AUBAGNE TRAIL CLUB 5.35